createdAt,value
2019-02-04T00:02:19.078Z,-0.58
2019-02-04T00:07:37.774Z,-0.85
2019-02-04T00:12:56.395Z,-0.93
2019-02-04T00:18:15.066Z,-0.90
2019-02-04T00:23:35.192Z,-0.67
2019-02-04T00:28:53.776Z,-0.71
2019-02-04T00:34:12.599Z,-0.57
2019-02-04T00:39:31.214Z,-0.46
2019-02-04T00:44:50.127Z,-0.38
2019-02-04T00:50:12.009Z,0.00
2019-02-04T00:55:30.658Z,-0.08
2019-02-04T01:00:49.356Z,0.13
2019-02-04T01:06:08.000Z,0.10
2019-02-04T01:11:26.641Z,0.24
2019-02-04T01:16:45.947Z,0.28
2019-02-04T01:22:04.668Z,0.31
2019-02-04T01:27:23.277Z,0.23
2019-02-04T01:32:41.753Z,0.09
2019-02-04T01:38:00.295Z,0.04
2019-02-04T01:43:18.785Z,-0.08
2019-02-04T01:48:37.620Z,-0.09
2019-02-04T01:53:56.195Z,-0.18
2019-02-04T01:59:15.058Z,-0.33
2019-02-04T02:04:34.318Z,-0.33
2019-02-04T02:09:52.976Z,-0.49
2019-02-04T02:15:11.579Z,-0.34
2019-02-04T02:20:30.593Z,-0.32
2019-02-04T02:25:49.255Z,-0.28
2019-02-04T02:31:07.875Z,-0.26
2019-02-04T02:36:26.694Z,-0.37
2019-02-04T02:41:45.246Z,-0.32
2019-02-04T02:47:03.806Z,-0.39
2019-02-04T02:52:22.359Z,-0.60
2019-02-04T02:57:41.057Z,-0.48
2019-02-04T03:03:00.924Z,-0.40
2019-02-04T03:08:19.423Z,-0.31
2019-02-04T03:13:38.081Z,-0.38
2019-02-04T03:18:56.643Z,-0.45
2019-02-04T03:24:15.218Z,-0.65
2019-02-04T03:29:33.790Z,-0.76
2019-02-04T03:34:52.279Z,-0.71
2019-02-04T03:40:14.099Z,-0.73
2019-02-04T03:45:32.708Z,-0.64
2019-02-04T03:50:51.260Z,-0.88
2019-02-04T03:56:09.877Z,-0.74
2019-02-04T04:01:29.166Z,-0.72
2019-02-04T04:06:47.809Z,-0.80
2019-02-04T04:12:06.409Z,-0.90
2019-02-04T04:17:25.255Z,-1.01
2019-02-04T04:22:43.883Z,-0.72
2019-02-04T04:28:02.426Z,-0.76
2019-02-04T04:33:21.040Z,-0.60
2019-02-04T04:38:39.531Z,-0.86
2019-02-04T04:43:58.153Z,-0.81
2019-02-04T04:49:16.699Z,-0.94
2019-02-04T04:54:35.471Z,-1.08
2019-02-04T04:59:54.357Z,-1.19
2019-02-04T05:05:14.477Z,-1.28
2019-02-04T05:10:33.030Z,-1.40
2019-02-04T05:15:51.796Z,-1.47
2019-02-04T05:21:10.410Z,-1.44
2019-02-04T05:26:29.052Z,-1.53
2019-02-04T05:31:47.602Z,-1.60
2019-02-04T05:37:06.251Z,-1.64
2019-02-04T05:42:24.799Z,-1.47
2019-02-04T05:47:43.431Z,-1.46
2019-02-04T05:53:03.858Z,-1.50
2019-02-04T05:58:22.440Z,-1.47
2019-02-04T06:03:41.361Z,-1.33
2019-02-04T06:09:00.102Z,-1.40
2019-02-04T06:14:18.750Z,-1.37
2019-02-04T06:19:37.519Z,-1.43
2019-02-04T06:24:56.148Z,-1.53
2019-02-04T06:30:16.634Z,-1.68
2019-02-04T06:35:35.274Z,-1.80
2019-02-04T06:40:53.881Z,-1.90
2019-02-04T06:46:12.519Z,-1.76
2019-02-04T06:51:31.123Z,-1.65
2019-02-04T06:56:49.637Z,-1.71
2019-02-04T07:02:08.304Z,-1.57
2019-02-04T07:07:26.928Z,-1.63
2019-02-04T07:12:45.791Z,-1.33
2019-02-04T07:18:04.404Z,-1.33
2019-02-04T07:23:23.000Z,-1.14
2019-02-04T07:28:41.645Z,-1.20
2019-02-04T07:34:00.186Z,-0.88
2019-02-04T07:39:18.739Z,-0.87
2019-02-04T07:44:37.297Z,-0.62
2019-02-04T07:49:55.841Z,-0.65
2019-02-04T07:55:14.846Z,-0.59
2019-02-04T08:00:36.417Z,-0.47
2019-02-04T08:05:54.961Z,-0.35
2019-02-04T08:11:13.581Z,-0.26
2019-02-04T08:16:32.070Z,-0.20
2019-02-04T08:21:50.686Z,0.01
2019-02-04T08:27:09.317Z,0.13
2019-02-04T08:32:27.862Z,0.31
2019-02-04T08:37:46.489Z,0.54
2019-02-04T08:43:05.207Z,0.94
2019-02-04T08:48:23.842Z,1.32
2019-02-04T08:53:42.404Z,1.51
2019-02-04T08:59:01.021Z,1.47
2019-02-04T09:04:19.747Z,1.56
2019-02-04T09:09:38.433Z,1.50
2019-02-04T09:14:56.973Z,1.67
2019-02-04T09:20:17.740Z,1.92
2019-02-04T09:25:36.386Z,1.93
2019-02-04T09:30:55.089Z,1.84
2019-02-04T09:36:13.697Z,1.94
2019-02-04T09:41:32.275Z,1.93
2019-02-04T09:46:51.133Z,1.95
2019-02-04T09:52:09.813Z,1.93
2019-02-04T09:57:28.503Z,2.01
2019-02-04T10:02:47.141Z,2.16
2019-02-04T10:08:06.751Z,2.26
2019-02-04T10:13:25.398Z,2.29
2019-02-04T10:18:43.927Z,2.35
2019-02-04T10:24:02.540Z,2.54
2019-02-04T10:29:21.276Z,2.50
2019-02-04T10:34:39.877Z,2.58
2019-02-04T10:39:58.631Z,2.77
2019-02-04T10:45:18.891Z,2.79
2019-02-04T10:50:46.122Z,3.11
2019-02-04T10:55:59.880Z,3.38
2019-02-04T11:01:19.045Z,3.50
2019-02-04T11:06:37.728Z,3.68
2019-02-04T11:11:56.311Z,3.58
2019-02-04T11:17:15.089Z,3.45
2019-02-04T11:22:33.689Z,3.64
2019-02-04T11:27:52.268Z,3.59
2019-02-04T11:33:11.096Z,3.43
2019-02-04T11:38:29.739Z,3.38
2019-02-04T11:43:48.221Z,3.29
2019-02-04T11:49:06.817Z,3.48
2019-02-04T11:54:25.429Z,3.45
2019-02-04T11:59:44.256Z,3.73
2019-02-04T12:05:02.763Z,3.88
2019-02-04T12:10:24.283Z,4.03
2019-02-04T12:15:42.897Z,4.06
2019-02-04T12:21:01.470Z,4.11
2019-02-04T12:26:20.015Z,4.13
2019-02-04T12:31:38.624Z,4.13
2019-02-04T12:36:57.256Z,4.19
2019-02-04T12:42:16.111Z,4.11
2019-02-04T12:47:36.112Z,3.91
2019-02-04T12:52:54.726Z,4.11
2019-02-04T12:58:13.342Z,4.40
2019-02-04T13:03:31.948Z,4.35
2019-02-04T13:08:50.485Z,4.16
2019-02-04T13:14:09.282Z,4.22
2019-02-04T13:19:27.828Z,4.08
2019-02-04T13:24:46.430Z,4.03
2019-02-04T13:30:11.209Z,4.07
2019-02-04T13:35:31.096Z,3.91
2019-02-04T13:40:49.727Z,3.79
2019-02-04T13:46:08.334Z,3.70
2019-02-04T13:51:26.953Z,3.84
2019-02-04T13:56:49.532Z,3.88
2019-02-04T14:02:08.686Z,3.78
2019-02-04T14:07:27.297Z,3.58
2019-02-04T14:12:46.495Z,3.62
2019-02-04T14:18:06.219Z,3.62
2019-02-04T14:23:27.468Z,3.61
2019-02-04T14:28:45.356Z,3.71
2019-02-04T14:34:06.357Z,3.63
2019-02-04T14:39:25.121Z,3.60
2019-02-04T14:44:45.127Z,3.52
2019-02-04T14:50:12.329Z,3.52
2019-02-04T14:55:46.092Z,3.45
2019-02-04T15:01:36.210Z,3.48
2019-02-04T15:07:00.577Z,3.46
2019-02-04T15:12:38.655Z,3.41
2019-02-04T15:18:11.387Z,3.40
2019-02-04T15:23:44.869Z,3.27
2019-02-04T15:29:09.261Z,3.29
2019-02-04T15:34:36.267Z,3.20
2019-02-04T15:40:00.851Z,3.21
2019-02-04T15:45:56.911Z,3.29
2019-02-04T15:51:24.504Z,3.23
2019-02-04T15:56:43.285Z,3.07
2019-02-04T16:02:01.905Z,3.03
2019-02-04T16:07:20.445Z,2.93
2019-02-04T16:12:39.075Z,2.92
2019-02-04T16:17:57.628Z,2.90
2019-02-04T16:23:16.236Z,2.91
2019-02-04T16:28:34.769Z,2.86
2019-02-04T16:33:53.460Z,2.78
2019-02-04T16:39:12.407Z,2.77
2019-02-04T16:44:31.087Z,2.79
2019-02-04T16:49:49.688Z,2.68
2019-02-04T16:55:08.901Z,2.70
2019-02-04T17:00:29.629Z,2.70
2019-02-04T17:05:48.317Z,2.67
2019-02-04T17:11:06.922Z,2.76
2019-02-04T17:16:25.806Z,2.72
2019-02-04T17:21:44.617Z,2.70
2019-02-04T17:27:03.210Z,2.72
2019-02-04T17:32:22.261Z,2.76
2019-02-04T17:37:40.882Z,2.73
2019-02-04T17:42:59.497Z,2.75
2019-02-04T17:48:18.139Z,2.67
2019-02-04T17:53:36.746Z,2.69
2019-02-04T17:58:55.359Z,2.63
2019-02-04T18:04:13.968Z,2.69
2019-02-04T18:09:32.516Z,2.73
2019-02-04T18:14:51.170Z,2.74
2019-02-04T18:20:11.664Z,2.69
2019-02-04T18:25:30.293Z,2.65
2019-02-04T18:30:48.859Z,2.59
2019-02-04T18:36:07.488Z,2.60
2019-02-04T18:41:26.237Z,2.60
2019-02-04T18:46:44.810Z,2.65
2019-02-04T18:52:03.460Z,2.65
2019-02-04T18:57:22.345Z,2.61
2019-02-04T19:02:43.815Z,2.57
2019-02-04T19:08:02.440Z,2.66
2019-02-04T19:13:21.072Z,2.62
2019-02-04T19:18:39.654Z,2.51
2019-02-04T19:24:09.067Z,2.47
2019-02-04T19:29:18.812Z,2.49
2019-02-04T19:34:37.802Z,2.60
2019-02-04T19:39:56.330Z,2.59
2019-02-04T19:45:20.371Z,2.60
2019-02-04T19:50:39.368Z,2.60
2019-02-04T19:55:58.393Z,2.58
2019-02-04T20:01:16.992Z,2.58
2019-02-04T20:06:35.566Z,2.59
2019-02-04T20:11:54.319Z,2.60
2019-02-04T20:17:12.890Z,2.58
2019-02-04T20:22:31.565Z,2.55
2019-02-04T20:27:50.360Z,2.52
2019-02-04T20:33:10.571Z,2.55
2019-02-04T20:38:29.407Z,2.62
2019-02-04T20:43:55.946Z,2.66
2019-02-04T20:49:14.606Z,2.73
2019-02-04T20:54:44.547Z,2.72
2019-02-04T20:59:53.559Z,2.71
2019-02-04T21:05:12.743Z,2.74
2019-02-04T21:10:31.762Z,2.73
2019-02-04T21:15:50.339Z,2.71
2019-02-04T21:21:09.009Z,2.75
2019-02-04T21:26:27.837Z,2.73
2019-02-04T21:31:46.328Z,2.74
2019-02-04T21:37:31.281Z,2.75
2019-02-04T21:42:54.090Z,2.66
2019-02-04T21:48:12.792Z,2.64
2019-02-04T21:53:31.341Z,2.63
2019-02-04T21:58:49.957Z,2.68
2019-02-04T22:04:08.675Z,2.65
2019-02-04T22:09:27.225Z,2.64
2019-02-04T22:14:45.773Z,2.57
2019-02-04T22:20:09.373Z,2.49
2019-02-04T22:25:28.078Z,2.44
2019-02-04T22:30:49.801Z,2.39
2019-02-04T22:36:08.545Z,2.47
2019-02-04T22:41:27.175Z,2.41
2019-02-04T22:46:45.755Z,2.40
2019-02-04T22:52:04.676Z,2.38
2019-02-04T22:57:23.300Z,2.32
2019-02-04T23:02:42.083Z,2.23
2019-02-04T23:08:00.699Z,2.23
2019-02-04T23:13:19.340Z,2.12
2019-02-04T23:18:37.889Z,2.10
2019-02-04T23:23:56.503Z,2.07
2019-02-04T23:29:15.127Z,2.01
2019-02-04T23:34:33.667Z,1.95
2019-02-04T23:39:52.204Z,1.88
2019-02-04T23:45:11.826Z,1.77
2019-02-04T23:50:30.746Z,1.68
2019-02-04T23:55:54.750Z,1.57
